KBGR/BGR METAR and TAF weather

Enter ICAO airport designator
Station Type Date Time Source
KBGR METAR 2020/11/25 22:15 UTC NOAA

KBGR 252215Z 34003KT 6SM -RA BR BKN003 OVC040 02/01 A3028 RMK AO2 P0001 I1000 T00170006


Station Type Date Time Source
KBGR Decoded METAR 2020/11/25 22:15 UTC NOAA

BANGOR INT'L AIRPORT, ME, United States (KBGR) 44-48N 068-49W 57M
Nov 25, 2020 - 05:15 PM EST / 2020.11.25 2215 UTC
Wind: from the NNW (340 degrees) at 3 MPH (3 KT):0
Visibility: 6 mile(s):0
Sky conditions: overcast
Weather: light rain; mist
Precipitation last hour: 0.01 inches
Temperature: 35.1 F (1.7 C)
Dew Point: 33.1 F (0.6 C)
Relative Humidity: 92%
Pressure (altimeter): 30.28 in. Hg (1025 hPa)
ob: KBGR 252215Z 34003KT 6SM -RA BR BKN003 OVC040 02/01 A3028 RMK AO2 P0001 I1000 T00170006
cycle: 22

Station Type Date Time Source
KBGR TAF 2020/11/25 22:04 UTC NOAA

TAF
AMD KBGR 252202Z 2522/2618 16006KT P6SM VCSH OVC020
FM252300 18005KT 2SM -RA BR SCT003 OVC012
FM261200 00000KT 2SM -RA BR OVC018
FM261300 00000KT 2SM -RA BR OVC002

Example: see airport list